Weather at Oceano County Airport

Public forecast

Using degrees Fahrenheit for public forecast. Weather courtesy of forecast.io.

Closest aviation weather report (METAR) to Oceano County Airport

Closest report is San Luis County Regional Airport, 8.2 nm (15.2 km) N. Retrieved 2020/09/18 18:56 UTC (12 minutes ago):

KSBP 181856Z 31014KT 10SM SKC 27/13 A2993 FU

Closest aviation forecast (TAF) to Oceano County Airport

Closest forecast is San Luis County Regional Airport, 8.2 nm (15.2 km) N. Retrieved 2020/09/18 18:42 UTC (26 minutes ago):

TAF KSBP 181737Z 1818/1918 VRB05KT P6SM BKN150 FM182000 30008KT P6SM BKN150 FM190300 27012KT P6SM BKN150 FM190600 31008KT 4SM BR BKN004 FM191200 VRB05KT 1SM BR OVC002 FM191700 VRB05KT 3SM BR BKN005 AMD NOT SKED